sensor_id;sensor_type;location;lat;lon;timestamp;pressure;altitude;pressure_sealevel;temperature;humidity
26657;BME280;14279;50.010;8.260;2023-10-19T00:00:32;98724.06;;;11.25;100.00
26657;BME280;14279;50.010;8.260;2023-10-19T00:03:01;98722.63;;;11.21;100.00
26657;BME280;14279;50.010;8.260;2023-10-19T00:05:31;98718.13;;;11.23;100.00
26657;BME280;14279;50.010;8.260;2023-10-19T00:07:58;98706.75;;;11.24;100.00
26657;BME280;14279;50.010;8.260;2023-10-19T00:10:24;98711.97;;;11.24;100.00
26657;BME280;14279;50.010;8.260;2023-10-19T00:12:54;98698.34;;;11.21;100.00
26657;BME280;14279;50.010;8.260;2023-10-19T00:15:25;98705.19;;;11.22;100.00
26657;BME280;14279;50.010;8.260;2023-10-19T00:17:53;98684.72;;;11.17;100.00
26657;BME280;14279;50.010;8.260;2023-10-19T00:20:19;98683.19;;;11.15;100.00
26657;BME280;14279;50.010;8.260;2023-10-19T00:23:16;98683.06;;;11.16;100.00
26657;BME280;14279;50.010;8.260;2023-10-19T00:25:53;98686.50;;;11.17;100.00
26657;BME280;14279;50.010;8.260;2023-10-19T00:28:19;98682.03;;;11.19;100.00
26657;BME280;14279;50.010;8.260;2023-10-19T00:30:45;98681.53;;;11.25;100.00
26657;BME280;14279;50.010;8.260;2023-10-19T00:33:13;98682.72;;;11.32;100.00
26657;BME280;14279;50.010;8.260;2023-10-19T00:35:46;98686.41;;;11.41;100.00
26657;BME280;14279;50.010;8.260;2023-10-19T00:38:13;98681.19;;;11.30;100.00
26657;BME280;14279;50.010;8.260;2023-10-19T00:41:08;98684.97;;;11.25;100.00
26657;BME280;14279;50.010;8.260;2023-10-19T00:43:39;98674.91;;;11.21;100.00
26657;BME280;14279;50.010;8.260;2023-10-19T00:46:15;98680.94;;;11.21;100.00
26657;BME280;14279;50.010;8.260;2023-10-19T00:48:46;98677.16;;;11.25;100.00
26657;BME280;14279;50.010;8.260;2023-10-19T00:51:14;98666.03;;;11.23;100.00
26657;BME280;14279;50.010;8.260;2023-10-19T00:56:36;98666.38;;;11.30;100.00
26657;BME280;14279;50.010;8.260;2023-10-19T00:59:02;98661.91;;;11.32;100.00
26657;BME280;14279;50.010;8.260;2023-10-19T01:01:40;98659.78;;;11.37;100.00
26657;BME280;14279;50.010;8.260;2023-10-19T01:04:10;98659.06;;;11.35;100.00
26657;BME280;14279;50.010;8.260;2023-10-19T01:06:42;98653.13;;;11.33;100.00
26657;BME280;14279;50.010;8.260;2023-10-19T01:09:24;98657.38;;;11.46;100.00
26657;BME280;14279;50.010;8.260;2023-10-19T01:11:53;98656.44;;;11.47;100.00
26657;BME280;14279;50.010;8.260;2023-10-19T01:14:22;98656.22;;;11.50;100.00
26657;BME280;14279;50.010;8.260;2023-10-19T01:16:49;98653.59;;;11.50;100.00
26657;BME280;14279;50.010;8.260;2023-10-19T01:19:17;98650.75;;;11.53;100.00
26657;BME280;14279;50.010;8.260;2023-10-19T01:21:44;98652.19;;;11.46;100.00
26657;BME280;14279;50.010;8.260;2023-10-19T01:24:20;98651.47;;;11.55;100.00
26657;BME280;14279;50.010;8.260;2023-10-19T01:26:52;98637.25;;;11.59;100.00
26657;BME280;14279;50.010;8.260;2023-10-19T01:29:18;98634.41;;;11.51;100.00
26657;BME280;14279;50.010;8.260;2023-10-19T01:31:51;98630.75;;;11.53;100.00
26657;BME280;14279;50.010;8.260;2023-10-19T01:34:21;98630.84;;;11.52;100.00
26657;BME280;14279;50.010;8.260;2023-10-19T01:36:47;98635.25;;;11.51;100.00
26657;BME280;14279;50.010;8.260;2023-10-19T01:39:15;98629.31;;;11.61;100.00
26657;BME280;14279;50.010;8.260;2023-10-19T01:41:44;98638.22;;;11.58;100.00
26657;BME280;14279;50.010;8.260;2023-10-19T01:44:09;98635.94;;;11.65;100.00
26657;BME280;14279;50.010;8.260;2023-10-19T01:46:38;98630.50;;;11.56;100.00
26657;BME280;14279;50.010;8.260;2023-10-19T01:49:04;98619.03;;;11.59;100.00
26657;BME280;14279;50.010;8.260;2023-10-19T01:51:32;98619.84;;;11.60;100.00
26657;BME280;14279;50.010;8.260;2023-10-19T01:53:58;98614.75;;;11.58;100.00
26657;BME280;14279;50.010;8.260;2023-10-19T01:56:26;98620.19;;;11.66;100.00
26657;BME280;14279;50.010;8.260;2023-10-19T01:58:52;98617.59;;;11.66;100.00
26657;BME280;14279;50.010;8.260;2023-10-19T02:01:18;98617.22;;;11.71;100.00
26657;BME280;14279;50.010;8.260;2023-10-19T02:03:53;98614.38;;;11.74;100.00
26657;BME280;14279;50.010;8.260;2023-10-19T02:06:27;98615.34;;;11.73;100.00
26657;BME280;14279;50.010;8.260;2023-10-19T02:08:56;98617.78;;;11.86;100.00
26657;BME280;14279;50.010;8.260;2023-10-19T02:11:23;98617.47;;;11.79;100.00
26657;BME280;14279;50.010;8.260;2023-10-19T02:13:50;98617.19;;;11.82;100.00
26657;BME280;14279;50.010;8.260;2023-10-19T02:16:17;98611.63;;;11.87;100.00
26657;BME280;14279;50.010;8.260;2023-10-19T02:18:45;98604.16;;;11.82;100.00
26657;BME280;14279;50.010;8.260;2023-10-19T02:21:10;98603.19;;;11.83;100.00
26657;BME280;14279;50.010;8.260;2023-10-19T02:23:39;98597.88;;;11.85;100.00
26657;BME280;14279;50.010;8.260;2023-10-19T02:26:06;98590.91;;;11.74;100.00
26657;BME280;14279;50.010;8.260;2023-10-19T02:28:33;98586.53;;;11.75;100.00
26657;BME280;14279;50.010;8.260;2023-10-19T02:31:02;98583.81;;;11.76;100.00
26657;BME280;14279;50.010;8.260;2023-10-19T02:33:37;98585.81;;;11.84;100.00
26657;BME280;14279;50.010;8.260;2023-10-19T02:36:02;98573.66;;;11.94;100.00
26657;BME280;14279;50.010;8.260;2023-10-19T02:38:28;98578.78;;;11.84;100.00
26657;BME280;14279;50.010;8.260;2023-10-19T02:40:54;98583.91;;;11.86;100.00
26657;BME280;14279;50.010;8.260;2023-10-19T02:43:19;98573.94;;;11.91;100.00
26657;BME280;14279;50.010;8.260;2023-10-19T02:45:45;98578.06;;;11.94;100.00
26657;BME280;14279;50.010;8.260;2023-10-19T02:48:13;98574.50;;;11.95;100.00
26657;BME280;14279;50.010;8.260;2023-10-19T02:50:38;98573.78;;;12.04;100.00
26657;BME280;14279;50.010;8.260;2023-10-19T02:53:03;98578.19;;;12.03;100.00
26657;BME280;14279;50.010;8.260;2023-10-19T02:55:29;98577.47;;;12.01;100.00
26657;BME280;14279;50.010;8.260;2023-10-19T02:57:55;98571.53;;;12.11;100.00
26657;BME280;14279;50.010;8.260;2023-10-19T03:00:24;98571.63;;;12.09;100.00
26657;BME280;14279;50.010;8.260;2023-10-19T03:02:58;98559.06;;;12.14;100.00
26657;BME280;14279;50.010;8.260;2023-10-19T03:05:25;98565.53;;;12.20;100.00
26657;BME280;14279;50.010;8.260;2023-10-19T03:07:51;98570.66;;;12.22;100.00
26657;BME280;14279;50.010;8.260;2023-10-19T03:10:17;98562.22;;;12.18;100.00
26657;BME280;14279;50.010;8.260;2023-10-19T03:12:50;98565.59;;;12.09;100.00
26657;BME280;14279;50.010;8.260;2023-10-19T03:15:16;98562.56;;;12.25;100.00
26657;BME280;14279;50.010;8.260;2023-10-19T03:17:44;98559.97;;;12.25;100.00
26657;BME280;14279;50.010;8.260;2023-10-19T03:20:10;98560.22;;;12.22;100.00
26657;BME280;14279;50.010;8.260;2023-10-19T03:22:36;98554.69;;;12.36;100.00
26657;BME280;14279;50.010;8.260;2023-10-19T03:25:04;98560.84;;;12.35;100.00
26657;BME280;14279;50.010;8.260;2023-10-19T03:27:49;98556.72;;;12.32;100.00
26657;BME280;14279;50.010;8.260;2023-10-19T03:30:14;98556.97;;;12.29;100.00
26657;BME280;14279;50.010;8.260;2023-10-19T03:32:41;98551.25;;;12.36;100.00
26657;BME280;14279;50.010;8.260;2023-10-19T03:35:06;98555.16;;;12.30;100.00
26657;BME280;14279;50.010;8.260;2023-10-19T03:37:31;98553.59;;;12.39;100.00
26657;BME280;14279;50.010;8.260;2023-10-19T03:40:00;98557.88;;;12.40;100.00
26657;BME280;14279;50.010;8.260;2023-10-19T03:42:30;98550.16;;;12.38;100.00
26657;BME280;14279;50.010;8.260;2023-10-19T03:45:05;98552.28;;;12.44;100.00
26657;BME280;14279;50.010;8.260;2023-10-19T03:47:38;98536.16;;;12.39;100.00
26657;BME280;14279;50.010;8.260;2023-10-19T03:50:04;98525.72;;;12.39;100.00
26657;BME280;14279;50.010;8.260;2023-10-19T03:52:35;98529.44;;;12.37;100.00
26657;BME280;14279;50.010;8.260;2023-10-19T03:55:02;98508.41;;;12.38;100.00
26657;BME280;14279;50.010;8.260;2023-10-19T03:57:30;98504.84;;;12.39;100.00
26657;BME280;14279;50.010;8.260;2023-10-19T03:59:56;98492.19;;;12.35;100.00
26657;BME280;14279;50.010;8.260;2023-10-19T04:02:22;98484.31;;;12.25;100.00
26657;BME280;14279;50.010;8.260;2023-10-19T04:04:48;98481.34;;;12.18;100.00
26657;BME280;14279;50.010;8.260;2023-10-19T04:07:15;98492.19;;;12.13;100.00
26657;BME280;14279;50.010;8.260;2023-10-19T04:09:51;98483.59;;;12.23;100.00
26657;BME280;14279;50.010;8.260;2023-10-19T04:12:26;98492.19;;;12.35;100.00
26657;BME280;14279;50.010;8.260;2023-10-19T04:14:54;98486.97;;;12.35;100.00
26657;BME280;14279;50.010;8.260;2023-10-19T04:17:19;98483.84;;;12.41;100.00
26657;BME280;14279;50.010;8.260;2023-10-19T04:19:46;98484.94;;;12.38;100.00
26657;BME280;14279;50.010;8.260;2023-10-19T04:22:13;98490.16;;;12.38;100.00
26657;BME280;14279;50.010;8.260;2023-10-19T04:24:47;98487.53;;;12.38;100.00
26657;BME280;14279;50.010;8.260;2023-10-19T04:27:12;98487.78;;;12.35;100.00
26657;BME280;14279;50.010;8.260;2023-10-19T04:29:38;98494.66;;;12.36;100.00
26657;BME280;14279;50.010;8.260;2023-10-19T04:32:05;98498.38;;;12.33;100.00
26657;BME280;14279;50.010;8.260;2023-10-19T04:34:32;98491.94;;;12.38;100.00
26657;BME280;14279;50.010;8.260;2023-10-19T04:36:57;98488.25;;;12.40;100.00
26657;BME280;14279;50.010;8.260;2023-10-19T04:39:22;98473.28;;;12.42;100.00
26657;BME280;14279;50.010;8.260;2023-10-19T04:41:48;98464.13;;;12.27;100.00
26657;BME280;14279;50.010;8.260;2023-10-19T04:44:15;98474.50;;;12.38;100.00
26657;BME280;14279;50.010;8.260;2023-10-19T04:46:41;98489.06;;;12.41;100.00
26657;BME280;14279;50.010;8.260;2023-10-19T04:49:07;98496.97;;;12.51;100.00
26657;BME280;14279;50.010;8.260;2023-10-19T04:51:33;98481.16;;;12.52;100.00
26657;BME280;14279;50.010;8.260;2023-10-19T04:53:59;98489.44;;;12.57;100.00
26657;BME280;14279;50.010;8.260;2023-10-19T04:56:25;98495.47;;;12.58;100.00
26657;BME280;14279;50.010;8.260;2023-10-19T04:58:50;98478.34;;;12.65;100.00
26657;BME280;14279;50.010;8.260;2023-10-19T05:01:15;98481.91;;;12.64;100.00
26657;BME280;14279;50.010;8.260;2023-10-19T05:03:43;98483.41;;;12.67;100.00
26657;BME280;14279;50.010;8.260;2023-10-19T05:06:09;98493.69;;;12.58;100.00
26657;BME280;14279;50.010;8.260;2023-10-19T05:08:35;98486.31;;;12.63;100.00
26657;BME280;14279;50.010;8.260;2023-10-19T05:11:01;98491.00;;;12.70;100.00
26657;BME280;14279;50.010;8.260;2023-10-19T05:13:27;98485.50;;;12.73;100.00
26657;BME280;14279;50.010;8.260;2023-10-19T05:15:54;98479.22;;;12.75;100.00
26657;BME280;14279;50.010;8.260;2023-10-19T05:18:21;98485.44;;;12.53;100.00
26657;BME280;14279;50.010;8.260;2023-10-19T05:20:46;98478.84;;;12.59;100.00
26657;BME280;14279;50.010;8.260;2023-10-19T05:23:12;98477.09;;;12.59;100.00
26657;BME280;14279;50.010;8.260;2023-10-19T05:25:40;98474.88;;;12.65;100.00
26657;BME280;14279;50.010;8.260;2023-10-19T05:28:06;98485.75;;;12.70;100.00
26657;BME280;14279;50.010;8.260;2023-10-19T05:30:32;98481.69;;;12.77;100.00
26657;BME280;14279;50.010;8.260;2023-10-19T05:32:58;98482.19;;;12.71;100.00
26657;BME280;14279;50.010;8.260;2023-10-19T05:35:25;98481.81;;;12.75;100.00
26657;BME280;14279;50.010;8.260;2023-10-19T05:37:54;98485.50;;;12.73;100.00
26657;BME280;14279;50.010;8.260;2023-10-19T05:40:22;98472.34;;;12.74;100.00
26657;BME280;14279;50.010;8.260;2023-10-19T05:42:48;98478.78;;;12.70;100.00
26657;BME280;14279;50.010;8.260;2023-10-19T05:45:14;98482.91;;;12.73;100.00
26657;BME280;14279;50.010;8.260;2023-10-19T05:47:41;98475.44;;;12.58;100.00
26657;BME280;14279;50.010;8.260;2023-10-19T05:50:07;98476.94;;;12.61;100.00
26657;BME280;14279;50.010;8.260;2023-10-19T05:52:32;98477.38;;;12.66;100.00
26657;BME280;14279;50.010;8.260;2023-10-19T05:54:57;98470.41;;;12.76;100.00
26657;BME280;14279;50.010;8.260;2023-10-19T05:57:23;98477.00;;;12.81;100.00
26657;BME280;14279;50.010;8.260;2023-10-19T05:59:49;98483.84;;;12.72;100.00
26657;BME280;14279;50.010;8.260;2023-10-19T06:02:14;98486.50;;;12.82;100.00
26657;BME280;14279;50.010;8.260;2023-10-19T06:04:39;98473.59;;;12.80;100.00
26657;BME280;14279;50.010;8.260;2023-10-19T06:07:04;98477.75;;;12.92;100.00
26657;BME280;14279;50.010;8.260;2023-10-19T06:09:30;98475.56;;;12.98;100.00
26657;BME280;14279;50.010;8.260;2023-10-19T06:11:55;98472.66;;;12.91;100.00
26657;BME280;14279;50.010;8.260;2023-10-19T06:14:21;98472.25;;;12.96;100.00
26657;BME280;14279;50.010;8.260;2023-10-19T06:16:46;98469.25;;;13.00;100.00
26657;BME280;14279;50.010;8.260;2023-10-19T06:19:11;98482.44;;;12.99;100.00
26657;BME280;14279;50.010;8.260;2023-10-19T06:21:36;98487.41;;;13.02;100.00
26657;BME280;14279;50.010;8.260;2023-10-19T06:24:02;98491.97;;;13.10;100.00
26657;BME280;14279;50.010;8.260;2023-10-19T06:26:28;98490.75;;;13.14;100.00
26657;BME280;14279;50.010;8.260;2023-10-19T06:28:54;98483.59;;;13.16;100.00
26657;BME280;14279;50.010;8.260;2023-10-19T06:31:24;98488.81;;;13.16;100.00
26657;BME280;14279;50.010;8.260;2023-10-19T06:33:49;98483.19;;;13.20;100.00
26657;BME280;14279;50.010;8.260;2023-10-19T06:36:14;98483.19;;;13.20;100.00
26657;BME280;14279;50.010;8.260;2023-10-19T06:38:39;98482.94;;;13.23;100.00
26657;BME280;14279;50.010;8.260;2023-10-19T06:41:12;98482.94;;;13.23;100.00
26657;BME280;14279;50.010;8.260;2023-10-19T06:43:38;98482.53;;;13.28;100.00
26657;BME280;14279;50.010;8.260;2023-10-19T06:46:04;98479.22;;;13.26;100.00
26657;BME280;14279;50.010;8.260;2023-10-19T06:48:29;98481.28;;;13.32;100.00
26657;BME280;14279;50.010;8.260;2023-10-19T06:50:56;98485.28;;;13.36;100.00
26657;BME280;14279;50.010;8.260;2023-10-19T06:53:21;98490.13;;;13.41;100.00
26657;BME280;14279;50.010;8.260;2023-10-19T06:55:47;98483.00;;;13.43;100.00
26657;BME280;14279;50.010;8.260;2023-10-19T06:58:13;98487.13;;;13.46;100.00
26657;BME280;14279;50.010;8.260;2023-10-19T07:00:40;98488.66;;;13.48;100.00
26657;BME280;14279;50.010;8.260;2023-10-19T07:03:08;98489.34;;;13.50;100.00
26657;BME280;14279;50.010;8.260;2023-10-19T07:05:33;98490.03;;;13.52;100.00
26657;BME280;14279;50.010;8.260;2023-10-19T07:07:59;98493.31;;;13.45;100.00
26657;BME280;14279;50.010;8.260;2023-10-19T07:10:27;98484.91;;;13.41;100.00
26657;BME280;14279;50.010;8.260;2023-10-19T07:12:54;98476.28;;;13.50;100.00
26657;BME280;14279;50.010;8.260;2023-10-19T07:15:20;98480.81;;;13.48;100.00
26657;BME280;14279;50.010;8.260;2023-10-19T07:17:48;98490.31;;;13.49;100.00
26657;BME280;14279;50.010;8.260;2023-10-19T07:20:15;98483.28;;;13.50;100.00
26657;BME280;14279;50.010;8.260;2023-10-19T07:22:54;98474.88;;;13.46;100.00
26657;BME280;14279;50.010;8.260;2023-10-19T07:25:21;98480.38;;;13.43;100.00
26657;BME280;14279;50.010;8.260;2023-10-19T07:27:50;98484.66;;;13.44;100.00
26657;BME280;14279;50.010;8.260;2023-10-19T07:30:19;98474.34;;;13.52;100.00
26657;BME280;14279;50.010;8.260;2023-10-19T07:32:52;98480.69;;;13.60;100.00
26657;BME280;14279;50.010;8.260;2023-10-19T07:35:24;98484.53;;;13.56;100.00
26657;BME280;14279;50.010;8.260;2023-10-19T07:37:54;98480.00;;;13.58;100.00
26657;BME280;14279;50.010;8.260;2023-10-19T07:40:21;98480.00;;;13.48;100.00
26657;BME280;14279;50.010;8.260;2023-10-19T07:42:48;98491.69;;;13.53;100.00
26657;BME280;14279;50.010;8.260;2023-10-19T07:45:15;98493.88;;;13.58;100.00
26657;BME280;14279;50.010;8.260;2023-10-19T07:47:41;98491.81;;;13.52;100.00
26657;BME280;14279;50.010;8.260;2023-10-19T07:50:08;98486.56;;;13.52;100.00
26657;BME280;14279;50.010;8.260;2023-10-19T07:55:09;98483.31;;;13.79;100.00
26657;BME280;14279;50.010;8.260;2023-10-19T07:57:34;98486.03;;;13.68;100.00
26657;BME280;14279;50.010;8.260;2023-10-19T08:00:00;98485.22;;;13.67;100.00
26657;BME280;14279;50.010;8.260;2023-10-19T08:02:25;98486.31;;;13.65;100.00
26657;BME280;14279;50.010;8.260;2023-10-19T08:04:51;98478.06;;;13.60;100.00
26657;BME280;14279;50.010;8.260;2023-10-19T08:07:17;98481.22;;;13.63;100.00
26657;BME280;14279;50.010;8.260;2023-10-19T08:09:42;98477.50;;;13.66;100.00
26657;BME280;14279;50.010;8.260;2023-10-19T08:12:08;98467.19;;;13.64;100.00
26657;BME280;14279;50.010;8.260;2023-10-19T08:14:34;98470.50;;;13.66;100.00
26657;BME280;14279;50.010;8.260;2023-10-19T08:17:00;98480.41;;;13.73;100.00
26657;BME280;14279;50.010;8.260;2023-10-19T08:19:27;98481.50;;;13.80;100.00
26657;BME280;14279;50.010;8.260;2023-10-19T08:21:53;98488.94;;;13.85;100.00
26657;BME280;14279;50.010;8.260;2023-10-19T08:24:18;98493.06;;;13.87;100.00
26657;BME280;14279;50.010;8.260;2023-10-19T08:26:44;98487.97;;;13.86;100.00
26657;BME280;14279;50.010;8.260;2023-10-19T08:29:11;98490.19;;;13.80;100.00
26657;BME280;14279;50.010;8.260;2023-10-19T08:31:43;98481.78;;;13.87;100.00
26657;BME280;14279;50.010;8.260;2023-10-19T08:34:12;98492.38;;;13.95;100.00
26657;BME280;14279;50.010;8.260;2023-10-19T08:36:39;98486.88;;;13.98;100.00
26657;BME280;14279;50.010;8.260;2023-10-19T08:39:05;98491.41;;;13.86;100.00
26657;BME280;14279;50.010;8.260;2023-10-19T08:41:34;98475.88;;;13.94;100.00
26657;BME280;14279;50.010;8.260;2023-10-19T08:44:07;98470.50;;;13.96;100.00
26657;BME280;14279;50.010;8.260;2023-10-19T08:46:40;98461.53;;;13.98;100.00
26657;BME280;14279;50.010;8.260;2023-10-19T08:49:09;98456.19;;;13.80;100.00
26657;BME280;14279;50.010;8.260;2023-10-19T08:51:37;98450.94;;;13.90;100.00
26657;BME280;14279;50.010;8.260;2023-10-19T08:54:04;98458.13;;;13.78;100.00
26657;BME280;14279;50.010;8.260;2023-10-19T08:56:31;98456.31;;;13.79;100.00
26657;BME280;14279;50.010;8.260;2023-10-19T08:58:58;98457.97;;;13.80;100.00
26657;BME280;14279;50.010;8.260;2023-10-19T09:01:23;98461.53;;;13.89;100.00
26657;BME280;14279;50.010;8.260;2023-10-19T09:03:50;98456.84;;;14.02;100.00
26657;BME280;14279;50.010;8.260;2023-10-19T09:06:15;98449.53;;;14.06;100.00
26657;BME280;14279;50.010;8.260;2023-10-19T09:08:40;98450.50;;;14.15;100.00
26657;BME280;14279;50.010;8.260;2023-10-19T09:11:07;98460.81;;;14.26;100.00
26657;BME280;14279;50.010;8.260;2023-10-19T09:13:47;98456.25;;;14.28;100.00
26657;BME280;14279;50.010;8.260;2023-10-19T09:16:17;98445.94;;;14.17;100.00
26657;BME280;14279;50.010;8.260;2023-10-19T09:18:42;98445.91;;;14.26;100.00
26657;BME280;14279;50.010;8.260;2023-10-19T09:21:08;98446.38;;;14.12;100.00
26657;BME280;14279;50.010;8.260;2023-10-19T09:23:37;98444.28;;;14.16;100.00
26657;BME280;14279;50.010;8.260;2023-10-19T09:26:04;98433.81;;;14.16;100.00
26657;BME280;14279;50.010;8.260;2023-10-19T09:28:36;98436.72;;;14.12;100.00
26657;BME280;14279;50.010;8.260;2023-10-19T09:31:03;98420.22;;;14.12;100.00
26657;BME280;14279;50.010;8.260;2023-10-19T09:33:30;98415.44;;;14.35;100.00
26657;BME280;14279;50.010;8.260;2023-10-19T09:36:00;98416.41;;;14.34;100.00
26657;BME280;14279;50.010;8.260;2023-10-19T09:38:26;98413.16;;;14.32;100.00
26657;BME280;14279;50.010;8.260;2023-10-19T09:40:52;98410.81;;;14.29;100.00
26657;BME280;14279;50.010;8.260;2023-10-19T09:43:46;98415.28;;;14.47;100.00
26657;BME280;14279;50.010;8.260;2023-10-19T09:46:21;98411.13;;;14.54;100.00
26657;BME280;14279;50.010;8.260;2023-10-19T09:48:46;98410.53;;;14.60;100.00
26657;BME280;14279;50.010;8.260;2023-10-19T09:51:14;98410.22;;;14.73;100.00
26657;BME280;14279;50.010;8.260;2023-10-19T09:53:42;98420.44;;;14.66;100.00
26657;BME280;14279;50.010;8.260;2023-10-19T09:56:12;98414.38;;;14.66;100.00
26657;BME280;14279;50.010;8.260;2023-10-19T09:58:59;98415.88;;;14.78;99.97
26657;BME280;14279;50.010;8.260;2023-10-19T10:01:27;98414.66;;;14.72;100.00
26657;BME280;14279;50.010;8.260;2023-10-19T10:03:53;98414.16;;;14.49;100.00
26657;BME280;14279;50.010;8.260;2023-10-19T10:07:25;98417.06;;;14.56;100.00
26657;BME280;14279;50.010;8.260;2023-10-19T10:09:20;98427.09;;;14.61;100.00
26657;BME280;14279;50.010;8.260;2023-10-19T10:11:49;98436.03;;;14.58;100.00
26657;BME280;14279;50.010;8.260;2023-10-19T10:14:25;98435.34;;;14.66;100.00
26657;BME280;14279;50.010;8.260;2023-10-19T10:17:02;98425.56;;;14.58;100.00
26657;BME280;14279;50.010;8.260;2023-10-19T10:19:28;98435.91;;;14.60;100.00
26657;BME280;14279;50.010;8.260;2023-10-19T10:22:10;98430.03;;;14.85;100.00
26657;BME280;14279;50.010;8.260;2023-10-19T10:24:44;98434.47;;;15.03;100.00
26657;BME280;14279;50.010;8.260;2023-10-19T10:27:09;98434.09;;;14.98;100.00
26657;BME280;14279;50.010;8.260;2023-10-19T10:29:53;98435.06;;;14.97;99.52
26657;BME280;14279;50.010;8.260;2023-10-19T10:38:02;98421.50;;;15.47;96.97
26657;BME280;14279;50.010;8.260;2023-10-19T10:40:30;98403.41;;;15.81;96.52
26657;BME280;14279;50.010;8.260;2023-10-19T10:43:06;98399.06;;;15.89;94.34
26657;BME280;14279;50.010;8.260;2023-10-19T10:45:31;98397.41;;;15.70;94.98
26657;BME280;14279;50.010;8.260;2023-10-19T10:47:56;98401.59;;;15.81;93.67
26657;BME280;14279;50.010;8.260;2023-10-19T10:50:22;98393.41;;;15.84;93.81
26657;BME280;14279;50.010;8.260;2023-10-19T10:52:48;98405.47;;;15.87;93.67
26657;BME280;14279;50.010;8.260;2023-10-19T10:55:14;98399.06;;;15.71;94.29
26657;BME280;14279;50.010;8.260;2023-10-19T10:57:43;98396.91;;;15.67;94.56
26657;BME280;14279;50.010;8.260;2023-10-19T11:00:12;98392.34;;;15.69;95.17
26657;BME280;14279;50.010;8.260;2023-10-19T11:02:41;98402.13;;;15.85;94.91
26657;BME280;14279;50.010;8.260;2023-10-19T11:05:14;98398.63;;;15.76;94.73
26657;BME280;14279;50.010;8.260;2023-10-19T11:07:41;98399.22;;;15.70;95.05
26657;BME280;14279;50.010;8.260;2023-10-19T11:10:07;98394.13;;;15.86;94.86
26657;BME280;14279;50.010;8.260;2023-10-19T11:12:35;98391.41;;;15.78;95.04
26657;BME280;14279;50.010;8.260;2023-10-19T11:15:00;98389.25;;;15.73;95.09
26657;BME280;14279;50.010;8.260;2023-10-19T11:17:28;98384.09;;;15.63;96.41
26657;BME280;14279;50.010;8.260;2023-10-19T11:19:57;98382.34;;;15.72;96.04
26657;BME280;14279;50.010;8.260;2023-10-19T11:22:23;98374.84;;;15.96;94.52
26657;BME280;14279;50.010;8.260;2023-10-19T11:24:53;98374.25;;;15.84;95.05
26657;BME280;14279;50.010;8.260;2023-10-19T11:27:24;98372.25;;;16.04;94.12
26657;BME280;14279;50.010;8.260;2023-10-19T11:29:58;98367.56;;;16.16;93.14
26657;BME280;14279;50.010;8.260;2023-10-19T11:32:36;98368.75;;;16.21;92.46
26657;BME280;14279;50.010;8.260;2023-10-19T11:35:03;98368.31;;;16.00;94.19
26657;BME280;14279;50.010;8.260;2023-10-19T11:37:28;98362.66;;;16.13;93.23
26657;BME280;14279;50.010;8.260;2023-10-19T11:39:54;98360.34;;;16.10;93.79
26657;BME280;14279;50.010;8.260;2023-10-19T11:42:19;98356.25;;;16.15;93.79
26657;BME280;14279;50.010;8.260;2023-10-19T11:44:45;98351.91;;;16.32;93.43
26657;BME280;14279;50.010;8.260;2023-10-19T11:47:11;98347.22;;;16.44;92.33
26657;BME280;14279;50.010;8.260;2023-10-19T11:49:36;98345.63;;;16.25;93.31
26657;BME280;14279;50.010;8.260;2023-10-19T11:52:06;98355.53;;;16.40;93.34
26657;BME280;14279;50.010;8.260;2023-10-19T11:54:33;98355.03;;;16.36;92.92
26657;BME280;14279;50.010;8.260;2023-10-19T11:56:58;98349.78;;;16.36;93.22
26657;BME280;14279;50.010;8.260;2023-10-19T11:59:24;98349.84;;;16.44;93.16
26657;BME280;14279;50.010;8.260;2023-10-19T12:01:49;98344.28;;;16.47;92.24
26657;BME280;14279;50.010;8.260;2023-10-19T12:04:14;98342.44;;;16.48;92.03
26657;BME280;14279;50.010;8.260;2023-10-19T12:06:40;98338.66;;;16.42;92.54
26657;BME280;14279;50.010;8.260;2023-10-19T12:09:05;98335.41;;;16.48;92.94
26657;BME280;14279;50.010;8.260;2023-10-19T12:11:40;98330.31;;;16.47;93.40
26657;BME280;14279;50.010;8.260;2023-10-19T12:14:05;98332.88;;;16.38;93.29
26657;BME280;14279;50.010;8.260;2023-10-19T12:16:34;98333.25;;;16.44;93.59
26657;BME280;14279;50.010;8.260;2023-10-19T12:18:59;98325.66;;;16.32;94.24
26657;BME280;14279;50.010;8.260;2023-10-19T12:21:24;98334.00;;;16.28;94.46
26657;BME280;14279;50.010;8.260;2023-10-19T12:23:52;98328.59;;;16.29;95.11
26657;BME280;14279;50.010;8.260;2023-10-19T12:26:20;98322.81;;;16.26;95.38
26657;BME280;14279;50.010;8.260;2023-10-19T12:28:45;98323.00;;;16.24;95.36
26657;BME280;14279;50.010;8.260;2023-10-19T12:31:12;98319.69;;;16.22;95.19
26657;BME280;14279;50.010;8.260;2023-10-19T12:33:38;98327.09;;;16.27;95.49
26657;BME280;14279;50.010;8.260;2023-10-19T12:36:07;98311.88;;;16.30;95.42
26657;BME280;14279;50.010;8.260;2023-10-19T12:38:52;98317.78;;;16.41;94.57
26657;BME280;14279;50.010;8.260;2023-10-19T12:41:21;98316.75;;;16.25;96.31
26657;BME280;14279;50.010;8.260;2023-10-19T12:43:46;98316.94;;;16.32;95.79
26657;BME280;14279;50.010;8.260;2023-10-19T12:46:13;98315.16;;;16.32;95.88
26657;BME280;14279;50.010;8.260;2023-10-19T12:48:39;98312.84;;;16.29;96.31
26657;BME280;14279;50.010;8.260;2023-10-19T12:51:05;98317.25;;;16.20;97.06
26657;BME280;14279;50.010;8.260;2023-10-19T12:53:34;98302.63;;;16.18;97.00
26657;BME280;14279;50.010;8.260;2023-10-19T12:56:00;98298.38;;;16.25;96.95
26657;BME280;14279;50.010;8.260;2023-10-19T12:58:25;98297.25;;;16.28;96.49
26657;BME280;14279;50.010;8.260;2023-10-19T13:00:53;98282.81;;;16.32;96.82
26657;BME280;14279;50.010;8.260;2023-10-19T13:03:19;98279.22;;;16.33;96.49
26657;BME280;14279;50.010;8.260;2023-10-19T13:05:45;98276.59;;;16.33;96.74
26657;BME280;14279;50.010;8.260;2023-10-19T13:08:11;98280.19;;;16.32;97.15